Lancaster Airport
KLNS : now visible

Airfield :











YOU CAN JOIN US ON...

 
LOGIN :

Register | Disclaimer

   EN    FR    IT 

 









Legend :    VFR   Marginal VFR   IFR   Intensive IFR   Very Intensive IFR
Visi :
Ceiling :
>= 8 km
>= 3000ft
5 to 8 km
1000 to 3000 ft
1500m to 5 km
500 to 1000 ft
800 to 1500m
200 to 500 ft
< 800m
< 200 ft
Symbols :   Thunderstorms  Fog  Heavy snow  Heavy precipitations  Wind > 20 kt






- Airport Elevation : 403 ft
- IATA code : LNS


KLNS - Lancaster

CURRENT METAR :
  • 110253Z 00000KT 10SM CLR 26/21 A3000 RMK AO2 SLP154 T02560206 51016

EXPIRED METARs :
  • 110153Z 19004KT 10SM CLR 28/21 A2999 RMK AO2 SLP150 T02780206
  • 110053Z 18005KT 10SM CLR 28/21 A2997 RMK AO2 SLP144 T02830206

TAF KLNS
Valid from the 11 at 00:00 until the 12 at 00:00 UTC


102334Z 1100/1124 19006KT P6SM SKC
FM110900 12004KT 5SM BR SCT008
FM111300 14003KT P6SM SCT050
FM111800 20006KT P6SM VCTS BKN050CB
KZNY FIR / North America



MET'MAP, your aeronautical weather chart ! - Copyright ORBIFLY December 2007 - Disclaimer

ORBIFLY MET'MAP TEAM :

Programming & Development : Alexandra Zaïnal
Concept & original design : Baudouin d'Aumeries
Assistance for programming : Marc-Olivier Méhu
Technical & hardware support : Manuel Goepfert

Contact : metmap@orbifly.com




SOURCES & CREDITS :

   NOAA       Earth
Advisory